createdAt,value
2023-04-01T00:05:51.204Z,8.38
2023-04-01T00:11:17.112Z,8.37
2023-04-01T00:16:41.674Z,8.35
2023-04-01T00:22:05.777Z,8.32
2023-04-01T00:27:29.651Z,8.30
2023-04-01T00:32:55.207Z,8.29
2023-04-01T00:38:20.058Z,8.29
2023-04-01T00:43:46.222Z,8.29
2023-04-01T00:49:11.018Z,8.30
2023-04-01T00:54:36.355Z,8.32
2023-04-01T01:00:01.124Z,8.33
2023-04-01T01:05:48.350Z,8.34
2023-04-01T01:11:15.724Z,8.36
2023-04-01T01:16:46.469Z,8.36
2023-04-01T01:22:31.278Z,8.35
2023-04-01T01:28:37.289Z,8.36
2023-04-01T01:34:16.667Z,8.35
2023-04-01T01:39:45.188Z,8.34
2023-04-01T01:45:13.740Z,8.32
2023-04-01T01:50:39.070Z,8.30
2023-04-01T01:56:04.192Z,8.27
2023-04-01T02:01:36.977Z,8.25
2023-04-01T02:07:17.554Z,8.24
2023-04-01T02:12:48.126Z,8.23
2023-04-01T02:18:14.603Z,8.21
2023-04-01T02:23:39.669Z,8.19
2023-04-01T02:29:07.022Z,8.16
2023-04-01T02:34:31.053Z,8.14
2023-04-01T02:40:01.797Z,8.11
2023-04-01T02:45:27.061Z,8.09
2023-04-01T02:50:51.417Z,8.09
2023-04-01T02:56:16.212Z,8.08
2023-04-01T03:01:40.116Z,8.08
2023-04-01T03:07:04.086Z,8.08
2023-04-01T03:12:28.835Z,8.07
2023-04-01T03:17:53.619Z,8.06
2023-04-01T03:23:20.639Z,8.07
2023-04-01T03:28:44.646Z,8.08
2023-04-01T03:34:09.188Z,8.08
2023-04-01T03:39:33.509Z,8.08
2023-04-01T03:44:57.630Z,8.08
2023-04-01T03:50:22.546Z,8.08
2023-04-01T03:55:48.003Z,8.08
2023-04-01T04:01:22.181Z,8.09
2023-04-01T04:06:49.314Z,8.10
2023-04-01T04:12:14.032Z,8.11
2023-04-01T04:17:38.220Z,8.12
2023-04-01T04:23:02.832Z,8.14
2023-04-01T04:28:28.501Z,8.15
2023-04-01T04:33:54.444Z,8.15
2023-04-01T04:39:18.538Z,8.13
2023-04-01T04:44:42.879Z,8.13
2023-04-01T04:50:07.825Z,8.13
2023-04-01T04:55:34.669Z,8.13
2023-04-01T05:01:18.800Z,8.12
2023-04-01T05:06:46.060Z,8.13
2023-04-01T05:12:11.218Z,8.13
2023-04-01T05:17:55.421Z,8.13
2023-04-01T05:23:20.182Z,8.13
2023-04-01T05:28:44.710Z,8.14
2023-04-01T05:34:09.357Z,8.15
2023-04-01T05:39:33.353Z,8.17
2023-04-01T05:44:58.356Z,8.19
2023-04-01T05:50:48.423Z,8.20
2023-04-01T05:56:13.544Z,8.23
2023-04-01T06:01:40.734Z,8.29
2023-04-01T06:07:19.422Z,8.34
2023-04-01T06:12:54.699Z,8.35
2023-04-01T06:18:37.381Z,8.35
2023-04-01T06:24:38.810Z,8.36
2023-04-01T06:30:26.972Z,8.37
2023-04-01T06:36:14.457Z,8.39
2023-04-01T06:41:51.601Z,8.44
2023-04-01T06:47:31.017Z,8.49
2023-04-01T06:53:38.096Z,8.54
2023-04-01T06:59:41.863Z,8.59
2023-04-01T07:05:06.755Z,8.63
2023-04-01T07:10:47.960Z,8.66
2023-04-01T07:17:03.275Z,8.72
2023-04-01T07:22:45.924Z,8.76
2023-04-01T07:28:35.530Z,8.88
2023-04-01T07:34:51.328Z,9.00
2023-04-01T07:40:40.597Z,9.04
2023-04-01T07:46:38.948Z,9.15
2023-04-01T07:52:37.194Z,9.26
2023-04-01T07:58:18.824Z,9.46
2023-04-01T08:03:49.364Z,9.63
2023-04-01T08:09:29.112Z,9.74
2023-04-01T08:15:28.815Z,9.93
2023-04-01T08:21:03.989Z,10.16
2023-04-01T08:26:38.613Z,10.36
2023-04-01T08:32:18.366Z,10.47
2023-04-01T08:37:46.961Z,10.48
2023-04-01T08:43:38.166Z,10.58
2023-04-01T08:49:23.755Z,10.78
2023-04-01T08:55:04.595Z,10.88
2023-04-01T09:00:57.617Z,10.88
2023-04-01T09:06:39.565Z,10.74
2023-04-01T09:12:49.728Z,10.71
2023-04-01T09:18:25.362Z,10.80
2023-04-01T09:24:13.130Z,11.02
2023-04-01T09:29:49.654Z,11.25
2023-04-01T09:35:29.617Z,11.57
2023-04-01T09:41:23.376Z,11.80
2023-04-01T09:47:11.306Z,12.28
2023-04-01T09:53:05.355Z,12.62
2023-04-01T09:58:55.905Z,12.99
2023-04-01T10:04:57.596Z,13.28
2023-04-01T10:10:43.867Z,13.28
2023-04-01T10:16:27.591Z,13.13
2023-04-01T10:22:25.093Z,12.80
2023-04-01T10:28:16.500Z,12.82
2023-04-01T10:35:18.166Z,12.45
2023-04-01T10:41:57.062Z,12.12
2023-04-01T10:48:25.919Z,11.98
2023-04-01T10:54:44.442Z,12.07
2023-04-01T11:01:09.304Z,12.36
2023-04-01T11:07:44.014Z,12.62
2023-04-01T11:13:29.556Z,12.61
2023-04-01T11:19:12.404Z,12.17
2023-04-01T11:25:00.997Z,11.97
2023-04-01T11:31:04.489Z,12.18
2023-04-01T11:37:01.352Z,12.59
2023-04-01T11:42:51.710Z,12.88
2023-04-01T11:48:52.221Z,12.96
2023-04-01T11:54:52.043Z,12.89
2023-04-01T12:00:47.013Z,12.88
2023-04-01T12:06:44.977Z,12.89
2023-04-01T12:12:22.340Z,12.89
2023-04-01T12:18:25.013Z,13.11
2023-04-01T12:24:35.130Z,13.72
2023-04-01T12:30:23.390Z,14.08
2023-04-01T12:35:57.367Z,14.44
2023-04-01T12:41:46.247Z,14.83
2023-04-01T12:47:34.665Z,15.12
2023-04-01T12:53:28.742Z,15.07
2023-04-01T12:59:19.317Z,15.04
2023-04-01T13:05:12.211Z,15.08
2023-04-01T13:10:59.440Z,15.11
2023-04-01T13:16:58.767Z,14.99
2023-04-01T13:22:47.192Z,14.78
2023-04-01T13:28:22.570Z,14.68
2023-04-01T13:34:01.691Z,14.81
2023-04-01T13:39:50.109Z,15.22
2023-04-01T13:45:27.865Z,15.66
2023-04-01T13:51:03.775Z,15.99
2023-04-01T13:57:20.479Z,16.06
2023-04-01T14:02:55.884Z,16.05
2023-04-01T14:08:53.269Z,15.84
2023-04-01T14:14:25.702Z,15.77
2023-04-01T14:20:11.814Z,15.31
2023-04-01T14:25:56.271Z,14.70
2023-04-01T14:31:33.063Z,13.96
2023-04-01T14:37:20.361Z,13.89
2023-04-01T14:43:17.167Z,14.12
2023-04-01T14:48:45.025Z,14.04
2023-04-01T14:54:15.291Z,13.94
2023-04-01T15:00:07.902Z,13.73
2023-04-01T15:05:53.897Z,13.90
2023-04-01T15:11:53.921Z,13.48
2023-04-01T15:17:31.400Z,13.09
2023-04-01T15:23:22.651Z,12.87
2023-04-01T15:29:05.502Z,12.52
2023-04-01T15:35:07.054Z,12.32
2023-04-01T15:40:37.701Z,12.03
2023-04-01T15:46:40.245Z,11.89
2023-04-01T15:52:16.871Z,11.42
2023-04-01T15:57:53.789Z,11.07
2023-04-01T16:03:31.361Z,10.91
2023-04-01T16:09:04.140Z,10.78
2023-04-01T16:14:46.473Z,10.70
2023-04-01T16:20:11.991Z,10.56
2023-04-01T16:25:55.128Z,10.58
2023-04-01T16:31:47.801Z,10.62
2023-04-01T16:37:23.614Z,10.65
2023-04-01T16:43:07.438Z,10.79
2023-04-01T16:48:54.421Z,11.08
2023-04-01T16:54:40.651Z,11.03
2023-04-01T17:00:29.361Z,10.94
2023-04-01T17:06:29.387Z,10.82
2023-04-01T17:12:32.437Z,10.71
2023-04-01T17:17:56.659Z,10.62
2023-04-01T17:23:54.611Z,10.49
2023-04-01T17:29:57.938Z,10.48
2023-04-01T17:35:36.432Z,10.47
2023-04-01T17:41:18.989Z,10.60
2023-04-01T17:46:47.292Z,10.69
2023-04-01T17:52:21.295Z,10.67
2023-04-01T17:58:00.197Z,10.63
2023-04-01T18:03:37.618Z,10.52
2023-04-01T18:09:45.593Z,10.45
2023-04-01T18:15:28.457Z,10.47
2023-04-01T18:21:20.166Z,10.28
2023-04-01T18:26:52.732Z,9.93
2023-04-01T18:32:48.303Z,9.78
2023-04-01T18:38:39.532Z,9.71
2023-04-01T18:44:35.969Z,9.58
2023-04-01T18:50:18.541Z,9.51
2023-04-01T18:55:57.216Z,9.43
2023-04-01T19:01:47.310Z,9.40
2023-04-01T19:07:29.965Z,9.41
2023-04-01T19:13:14.776Z,9.39
2023-04-01T19:19:04.299Z,9.52
2023-04-01T19:24:55.340Z,9.62
2023-04-01T19:30:48.479Z,9.54
2023-04-01T19:36:25.906Z,9.25
2023-04-01T19:42:04.884Z,9.03
2023-04-01T19:47:59.418Z,8.87
2023-04-01T19:53:37.845Z,8.93
2023-04-01T19:59:15.406Z,8.92
2023-04-01T20:04:49.762Z,8.83
2023-04-01T20:10:44.925Z,8.71
2023-04-01T20:16:12.153Z,8.59
2023-04-01T20:21:39.860Z,8.49
2023-04-01T20:27:34.777Z,8.46
2023-04-01T20:33:17.313Z,8.33
2023-04-01T20:39:12.666Z,8.19
2023-04-01T20:44:49.848Z,8.14
2023-04-01T20:50:37.637Z,8.20
2023-04-01T20:56:49.552Z,8.22
2023-04-01T21:02:31.053Z,8.28
2023-04-01T21:08:42.165Z,8.15
2023-04-01T21:14:32.926Z,7.94
2023-04-01T21:20:27.854Z,7.76
2023-04-01T21:26:24.037Z,7.68
2023-04-01T21:32:07.500Z,7.63
2023-04-01T21:37:55.871Z,7.66
2023-04-01T21:43:40.269Z,7.65
2023-04-01T21:49:31.726Z,7.51
2023-04-01T21:55:08.787Z,7.34
2023-04-01T22:00:51.015Z,7.24
2023-04-01T22:06:40.143Z,7.15
2023-04-01T22:12:42.145Z,7.07
2023-04-01T22:18:23.461Z,7.04
2023-04-01T22:24:12.976Z,6.97
2023-04-01T22:29:48.529Z,6.88
2023-04-01T22:35:45.754Z,6.82
2023-04-01T22:41:43.040Z,6.75
2023-04-01T22:47:21.604Z,6.64
2023-04-01T22:52:54.149Z,6.70
2023-04-01T22:58:35.502Z,6.66
2023-04-01T23:04:05.047Z,6.44
2023-04-01T23:09:34.641Z,6.33
2023-04-01T23:15:03.469Z,6.27
2023-04-01T23:20:52.179Z,6.22
2023-04-01T23:26:41.680Z,6.13
2023-04-01T23:32:06.024Z,6.02
2023-04-01T23:37:34.965Z,5.98
2023-04-01T23:42:59.277Z,5.92
2023-04-01T23:48:30.760Z,5.80
2023-04-01T23:54:20.428Z,5.68
2023-04-01T23:59:45.174Z,5.70
